Time;durP1;ratioP1;P1;durP2;ratioP2;P2;SDS_P1;SDS_P2;PMS_P1;PMS_P2;Temp;Humidity;BMP_temperature;BMP_pressure;BME280_temperature;BME280_humidity;BME280_pressure;Samples;Min_cycle;Max_cycle;Signal;HPM_P1;HPM_P2
2022/12/27 00:01:28;;;;;;;3.90;3.20;;;;;;;4.11;86.44;101550.69;6097632;28;20255;-67
2022/12/27 00:04:49;;;;;;;4.83;2.77;;;;;;;4.11;86.57;101550.69;6092535;28;20243;-67
2022/12/27 00:08:10;;;;;;;5.30;1.90;;;;;;;4.13;86.04;101554.13;6092781;28;20239;-66
2022/12/27 00:11:33;;;;;;;3.13;1.10;;;;;;;4.14;85.92;101569.22;6101056;28;20235;-66
2022/12/27 00:14:54;;;;;;;1.47;1.37;;;;;;;4.14;85.78;101571.88;6103848;28;20235;-67
2022/12/27 00:18:15;;;;;;;4.23;2.23;;;;;;;4.11;86.14;101565.84;6094156;28;20426;-66
2022/12/27 00:21:36;;;;;;;2.73;1.37;;;;;;;4.11;85.67;101564.00;6099829;28;20371;-67
2022/12/27 00:24:57;;;;;;;1.73;1.63;;;;;;;4.07;85.61;101575.78;6104696;28;20543;-67
2022/12/27 00:28:19;;;;;;;2.37;2.17;;;;;;;4.08;85.52;101561.53;6090654;28;20236;-67
2022/12/27 00:31:40;;;;;;;5.17;1.80;;;;;;;4.09;85.18;101565.06;6107407;28;20235;-67
2022/12/27 00:35:01;;;;;;;2.80;2.07;;;;;;;4.08;85.44;101569.53;6100207;28;20597;-66
2022/12/27 00:38:22;;;;;;;5.40;1.90;;;;;;;4.07;85.21;101589.13;6094107;28;20854;-67
2022/12/27 00:41:43;;;;;;;2.50;1.60;;;;;;;4.10;84.98;101574.78;6112950;28;20241;-66
2022/12/27 00:45:07;;;;;;;1.70;1.60;;;;;;;4.05;85.12;101575.00;6100722;28;20255;-66
2022/12/27 00:48:28;;;;;;;2.00;1.40;;;;;;;4.02;84.77;101578.72;6092925;28;20326;-67
2022/12/27 00:51:49;;;;;;;4.20;2.07;;;;;;;4.01;84.83;101584.97;6118410;28;20244;-67
2022/12/27 00:55:10;;;;;;;2.07;1.93;;;;;;;4.01;85.46;101578.75;6109321;28;21150;-66
2022/12/27 00:58:31;;;;;;;4.53;2.23;;;;;;;3.97;85.35;101577.19;6097892;28;20420;-65
2022/12/27 01:01:53;;;;;;;4.47;0.93;;;;;;;3.96;85.03;101589.66;6107537;28;20362;-65
2022/12/27 01:05:14;;;;;;;1.33;1.00;;;;;;;3.95;85.14;101592.41;6103589;28;20236;-66
2022/12/27 01:08:35;;;;;;;2.97;2.47;;;;;;;3.93;85.84;101594.28;6097466;28;20235;-66
2022/12/27 01:11:56;;;;;;;3.33;1.43;;;;;;;3.89;85.68;101595.38;6112270;28;20224;-66
2022/12/27 01:15:17;;;;;;;5.63;2.17;;;;;;;3.92;85.64;101597.91;6111713;28;20235;-66
2022/12/27 01:18:39;;;;;;;17.43;2.53;;;;;;;3.86;85.76;101592.88;6097079;28;20251;-68
2022/12/27 01:22:00;;;;;;;1.60;1.27;;;;;;;3.89;85.20;101587.38;6105796;28;20232;-67
2022/12/27 01:25:21;;;;;;;3.90;2.23;;;;;;;3.82;85.81;101599.28;6107194;28;20227;-67
2022/12/27 01:28:42;;;;;;;1.33;1.23;;;;;;;3.80;86.16;101601.16;6089859;28;20232;-66
2022/12/27 01:32:03;;;;;;;4.87;1.30;;;;;;;3.84;85.63;101606.28;6104193;28;20236;-66
2022/12/27 01:35:25;;;;;;;1.80;1.10;;;;;;;3.77;85.70;101615.53;6100051;28;23237;-67
2022/12/27 01:38:47;;;;;;;1.43;1.33;;;;;;;3.72;85.68;101628.22;6092660;28;20361;-67
2022/12/27 01:45:54;;;;;;;3.30;1.73;;;;;;;3.73;85.75;101611.31;6093798;28;20697;-66
2022/12/27 01:49:15;;;;;;;4.80;1.57;;;;;;;3.69;86.21;101608.84;6094765;28;20236;-66
2022/12/27 01:52:41;;;;;;;1.90;1.80;;;;;;;3.69;86.08;101617.69;6103566;28;20240;-67
2022/12/27 01:56:04;;;;;;;4.47;2.10;;;;;;;3.74;85.94;101617.47;6104121;28;20232;-66
2022/12/27 01:59:25;;;;;;;2.00;1.20;;;;;;;3.73;86.07;101618.44;6092111;28;20545;-67
2022/12/27 02:02:47;;;;;;;8.33;1.50;;;;;;;3.76;85.57;101628.91;6101346;28;20231;-67
2022/12/27 02:06:10;;;;;;;3.60;1.50;;;;;;;3.80;85.74;101644.69;6099858;28;20236;-66
2022/12/27 02:09:39;;;;;;;4.43;1.37;;;;;;;3.77;85.83;101639.53;6070480;28;20244;-66
2022/12/27 02:13:00;;;;;;;6.37;1.40;;;;;;;3.78;85.99;101632.38;6095255;28;20235;-66
2022/12/27 02:16:23;;;;;;;1.67;1.40;;;;;;;3.75;86.06;101637.88;6084386;28;20240;-67
2022/12/27 02:20:04;;;;;;;2.37;1.43;;;;;;;3.75;86.07;101632.53;6100193;28;20232;-66
2022/12/27 02:24:04;;;;;;;3.10;1.40;;;;;;;3.76;86.08;101626.25;6096557;28;20247;-66
2022/12/27 02:27:45;;;;;;;2.27;1.43;;;;;;;3.73;85.74;101635.28;6118029;28;20227;-66
2022/12/27 02:31:11;;;;;;;4.53;2.00;;;;;;;3.75;86.10;101621.88;6112229;28;20236;-66
2022/12/27 02:34:43;;;;;;;0.90;0.90;;;;;;;3.74;85.65;101646.78;6101729;28;20231;-65
2022/12/27 02:38:09;;;;;;;5.73;2.43;;;;;;;3.73;86.09;101647.75;6100595;28;20334;-67
2022/12/27 02:53:03;;;;;;;4.87;1.63;;;;;;;3.63;87.01;101646.47;6116925;28;20259;-66
2022/12/27 03:04:11;;;;;;;7.67;1.73;;;;;;;3.70;87.09;101646.09;6099314;28;20239;-66
2022/12/27 03:07:42;;;;;;;5.80;1.73;;;;;;;3.61;87.79;101649.19;6108541;28;20705;-66
2022/12/27 03:18:40;;;;;;;2.93;1.40;;;;;;;3.68;87.37;101644.44;6098989;28;20236;-67
2022/12/27 03:25:44;;;;;;;2.83;2.50;;;;;;;3.65;87.29;101661.44;6108624;28;20236;-66
2022/12/27 03:40:14;;;;;;;1.33;1.00;;;;;;;3.69;87.59;101662.16;6111108;28;20235;-67
2022/12/27 03:43:37;;;;;;;3.77;1.50;;;;;;;3.76;87.22;101644.91;6094492;28;20231;-67
2022/12/27 03:47:00;;;;;;;7.87;2.50;;;;;;;3.69;87.75;101655.00;6112154;28;20326;-67
2022/12/27 03:50:25;;;;;;;1.10;1.10;;;;;;;3.67;88.54;101656.06;6102597;28;20263;-66
2022/12/27 03:53:48;;;;;;;1.70;1.50;;;;;;;3.70;88.46;101650.56;6092757;28;20343;-66
2022/12/27 03:57:13;;;;;;;2.37;2.00;;;;;;;3.73;87.79;101656.63;6110940;28;20244;-65
2022/12/27 04:00:34;;;;;;;2.00;1.60;;;;;;;3.78;87.46;101659.03;6097518;28;20840;-66
2022/12/27 04:03:54;;;;;;;2.00;1.40;;;;;;;3.82;87.81;101660.63;6092169;28;20243;-66
2022/12/27 04:07:15;;;;;;;7.63;1.83;;;;;;;3.83;87.77;101681.91;6106389;28;20243;-66
2022/12/27 04:36:10;;;;;;;2.60;1.17;;;;;;;3.97;87.67;101686.56;6095492;28;20244;-67
2022/12/27 04:39:32;;;;;;;5.93;3.10;;;;;;;3.94;87.77;101676.88;6102809;28;20223;-67
2022/12/27 04:57:38;;;;;;;2.33;2.23;;;;;;;4.09;87.68;101693.13;6108510;28;20571;-66
2022/12/27 05:04:42;;;;;;;1.73;1.40;;;;;;;4.07;88.18;101726.03;6108187;28;20250;-67
2022/12/27 05:15:34;;;;;;;2.10;1.90;;;;;;;4.02;89.82;101712.09;6108603;28;20303;-67
2022/12/27 05:18:55;;;;;;;2.37;2.20;;;;;;;4.01;90.55;101706.81;6095528;28;20335;-66
2022/12/27 05:25:56;;;;;;;7.33;2.37;;;;;;;3.98;90.97;101710.47;6103883;28;20261;-66
2022/12/27 05:29:17;;;;;;;2.47;2.03;;;;;;;4.01;90.58;101706.81;6096207;28;20311;-66
2022/12/27 05:32:38;;;;;;;6.23;2.43;;;;;;;4.05;91.56;101714.59;6103501;28;20247;-66
2022/12/27 05:35:59;;;;;;;2.17;1.97;;;;;;;3.93;92.22;101719.66;6097917;28;20228;-66
2022/12/27 05:39:20;;;;;;;2.23;2.00;;;;;;;3.97;93.01;101724.75;6088750;28;20231;-65
2022/12/27 05:42:42;;;;;;;1.57;1.47;;;;;;;3.96;92.58;101714.19;6101640;28;20550;-66
2022/12/27 05:46:05;;;;;;;2.40;2.20;;;;;;;3.99;92.60;101719.34;6104671;28;20241;-65
2022/12/27 05:49:26;;;;;;;2.67;2.57;;;;;;;4.01;92.84;101721.00;6098649;28;20231;-66
2022/12/27 05:52:46;;;;;;;2.73;2.53;;;;;;;3.99;92.34;101720.22;6097300;28;20240;-66
2022/12/27 05:56:08;;;;;;;3.83;2.27;;;;;;;4.00;92.02;101723.75;6098777;28;20240;-65
2022/12/27 05:59:30;;;;;;;2.07;1.97;;;;;;;4.00;92.09;101710.41;6092146;28;20901;-66
2022/12/27 06:02:51;;;;;;;1.70;1.33;;;;;;;4.02;91.84;101725.44;6086212;28;20335;-65
2022/12/27 06:06:13;;;;;;;3.50;1.90;;;;;;;4.08;91.67;101734.91;6100821;28;20252;-65
2022/12/27 06:09:34;;;;;;;2.87;1.70;;;;;;;4.11;90.86;101733.91;6093769;28;20232;-66
2022/12/27 06:12:55;;;;;;;3.37;2.40;;;;;;;4.12;91.34;101751.63;6093982;28;20236;-65
2022/12/27 06:16:18;;;;;;;2.33;1.80;;;;;;;4.11;91.53;101747.25;6099000;28;20252;-66
2022/12/27 06:19:39;;;;;;;3.23;1.43;;;;;;;4.13;90.95;101754.22;6097201;28;20250;-67
2022/12/27 06:23:00;;;;;;;2.70;1.50;;;;;;;4.11;90.73;101741.91;6100804;28;20235;-67
2022/12/27 06:26:23;;;;;;;2.33;1.83;;;;;;;4.11;89.87;101756.09;6084356;28;20236;-67
2022/12/27 06:29:43;;;;;;;8.20;2.27;;;;;;;4.12;90.11;101787.19;6097204;28;20457;-66
2022/12/27 06:33:06;;;;;;;6.43;1.93;;;;;;;4.13;90.58;101772.91;6103879;28;20236;-66
2022/12/27 06:36:29;;;;;;;2.23;1.90;;;;;;;4.15;89.98;101779.06;6100510;28;20227;-66
2022/12/27 06:39:50;;;;;;;1.67;1.57;;;;;;;4.14;90.17;101779.97;6100777;28;20503;-67
2022/12/27 06:43:11;;;;;;;3.43;2.47;;;;;;;4.13;89.70;101774.72;6093021;28;21031;-67
2022/12/27 06:46:32;;;;;;;2.10;1.90;;;;;;;4.11;90.35;101780.09;6096573;28;20256;-68
2022/12/27 06:49:55;;;;;;;9.07;2.53;;;;;;;4.06;90.63;101784.81;6096992;28;20577;-67
2022/12/27 06:53:16;;;;;;;2.53;1.70;;;;;;;4.02;90.86;101776.09;6100507;28;20247;-66
2022/12/27 06:56:37;;;;;;;6.60;3.97;;;;;;;4.02;91.71;101793.91;6093367;28;20271;-66
2022/12/27 06:59:58;;;;;;;4.07;2.47;;;;;;;4.03;90.99;101806.28;6102043;28;20227;-67
2022/12/27 07:03:19;;;;;;;2.00;1.67;;;;;;;4.03;91.14;101806.28;6086899;28;20240;-66
2022/12/27 07:06:41;;;;;;;5.43;1.53;;;;;;;4.12;91.23;101810.31;6088343;28;20334;-67
2022/12/27 07:10:02;;;;;;;4.10;1.73;;;;;;;4.16;90.60;101826.13;6107329;28;20242;-66
2022/12/27 07:13:24;;;;;;;1.57;1.47;;;;;;;4.18;91.11;101839.38;6097781;28;20322;-65
2022/12/27 07:16:45;;;;;;;1.90;1.70;;;;;;;4.20;91.39;101849.06;6108601;28;20414;-67
2022/12/27 07:20:07;;;;;;;3.07;1.50;;;;;;;4.21;92.01;101873.94;6094434;28;20235;-68
2022/12/27 07:23:29;;;;;;;1.87;1.77;;;;;;;4.13;93.08;101860.09;6098108;28;20534;-66
2022/12/27 07:26:50;;;;;;;2.23;2.03;;;;;;;4.07;93.08;101869.22;6104671;28;20253;-65
2022/12/27 07:30:11;;;;;;;3.20;2.17;;;;;;;3.98;94.42;101867.00;6101421;28;20251;-66
2022/12/27 07:33:32;;;;;;;2.10;1.80;;;;;;;3.83;95.61;101868.56;6086621;28;20306;-66
2022/12/27 07:36:53;;;;;;;2.97;2.67;;;;;;;3.82;95.29;101872.16;6104194;28;20237;-66
2022/12/27 07:40:15;;;;;;;3.43;2.27;;;;;;;3.82;95.69;101872.16;6102604;28;20239;-67
2022/12/27 07:43:37;;;;;;;2.90;1.50;;;;;;;3.86;95.74;101864.88;6085464;28;20232;-65
2022/12/27 07:46:57;;;;;;;3.53;2.60;;;;;;;3.93;94.80;101866.34;6104708;28;20236;-66
2022/12/27 07:50:19;;;;;;;2.77;2.23;;;;;;;3.94;94.39;101879.59;6103471;28;20243;-66
2022/12/27 07:53:40;;;;;;;4.27;2.33;;;;;;;3.99;94.43;101900.72;6094667;28;20710;-66
2022/12/27 07:57:02;;;;;;;2.00;1.83;;;;;;;3.99;95.00;101892.72;6105116;28;20227;-67
2022/12/27 08:00:23;;;;;;;6.67;2.30;;;;;;;3.98;93.69;101885.69;6099167;28;20236;-65
2022/12/27 08:03:45;;;;;;;3.33;2.10;;;;;;;3.97;93.50;101900.81;6090537;28;20251;-66
2022/12/27 08:07:11;;;;;;;9.30;1.97;;;;;;;3.97;93.98;101903.47;6101648;28;20235;-66
2022/12/27 08:10:32;;;;;;;2.43;2.27;;;;;;;4.02;93.56;101905.94;6090066;28;20342;-68
2022/12/27 08:13:54;;;;;;;2.70;2.43;;;;;;;4.01;92.63;101920.19;6087959;28;20239;-67
2022/12/27 08:17:19;;;;;;;6.73;1.93;;;;;;;4.02;92.63;101916.59;6101898;28;21731;-65
2022/12/27 08:20:40;;;;;;;11.03;3.10;;;;;;;3.97;93.11;101919.47;6087223;28;20235;-67
2022/12/27 08:24:00;;;;;;;9.00;2.17;;;;;;;4.00;92.41;101932.66;6088912;28;20231;-67
2022/12/27 08:27:23;;;;;;;2.60;1.53;;;;;;;4.01;92.45;101925.53;6107458;28;20231;-66
2022/12/27 08:30:46;;;;;;;2.13;1.30;;;;;;;4.18;91.85;101938.09;6110242;28;20228;-66
2022/12/27 08:34:07;;;;;;;6.93;2.60;;;;;;;4.32;91.23;101952.56;6097410;28;20326;-67
2022/12/27 08:37:28;;;;;;;4.00;1.00;;;;;;;4.76;89.74;101956.69;6114820;28;20240;-68
2022/12/27 08:40:49;;;;;;;1.70;1.57;;;;;;;4.91;88.99;101954.22;6110696;28;20256;-67
2022/12/27 08:44:10;;;;;;;3.10;2.90;;;;;;;4.68;89.93;101958.88;6093945;28;20236;-67
2022/12/27 08:47:31;;;;;;;1.63;1.53;;;;;;;4.52;90.43;101968.53;6105613;28;20320;-67
2022/12/27 08:50:52;;;;;;;3.70;2.17;;;;;;;4.37;90.51;101965.69;6107163;28;20240;-67
2022/12/27 08:54:13;;;;;;;3.13;2.10;;;;;;;4.29;90.97;101971.41;6082881;28;20242;-66
2022/12/27 08:57:34;;;;;;;2.90;2.70;;;;;;;4.32;91.38;101957.06;6104764;28;20548;-68
2022/12/27 09:00:54;;;;;;;3.50;1.60;;;;;;;4.31;91.68;101964.19;6098686;28;20255;-68
2022/12/27 09:04:17;;;;;;;2.13;1.93;;;;;;;4.53;90.83;101972.94;6089603;28;20817;-68
2022/12/27 09:07:38;;;;;;;2.60;2.40;;;;;;;4.98;89.10;101977.06;6094991;28;20236;-68
2022/12/27 09:11:07;;;;;;;2.17;1.97;;;;;;;5.66;86.67;101971.81;6098731;28;20266;-66
2022/12/27 09:14:28;;;;;;;2.73;1.93;;;;;;;7.02;79.67;101981.41;6093591;28;20242;-67
2022/12/27 09:17:49;;;;;;;5.70;2.60;;;;;;;8.06;74.29;101967.16;6096784;28;20330;-67
2022/12/27 09:21:14;;;;;;;2.77;1.83;;;;;;;7.60;74.51;101986.94;6097343;28;20241;-67
2022/12/27 09:24:35;;;;;;;3.80;1.83;;;;;;;9.29;69.79;101989.75;6100840;28;20232;-67
2022/12/27 09:27:56;;;;;;;2.33;1.83;;;;;;;8.44;71.77;101993.50;6103236;28;20232;-66
2022/12/27 09:31:18;;;;;;;1.20;1.10;;;;;;;10.11;66.78;101997.69;6100033;28;20637;-67
2022/12/27 09:34:39;;;;;;;1.67;1.57;;;;;;;9.42;68.38;102004.13;6095121;28;20235;-68
2022/12/27 09:38:01;;;;;;;2.37;1.70;;;;;;;10.49;63.71;101990.50;6097869;28;20303;-66
2022/12/27 09:41:45;;;;;;;2.87;1.10;;;;;;;8.78;70.04;101998.50;6090466;28;20232;-66
2022/12/27 09:45:12;;;;;;;2.20;1.70;;;;;;;7.65;72.84;102008.16;6107384;28;20227;-67
2022/12/27 09:48:36;;;;;;;4.20;1.93;;;;;;;7.72;72.39;102014.88;6090173;28;20517;-66
2022/12/27 09:52:02;;;;;;;6.67;1.47;;;;;;;6.95;75.33;102016.66;6105424;28;20283;-66
2022/12/27 09:55:36;;;;;;;3.13;1.43;;;;;;;8.80;69.97;102010.03;6107814;28;20238;-67
2022/12/27 09:59:03;;;;;;;3.30;1.60;;;;;;;8.90;68.70;102000.41;6102048;28;20728;-65
2022/12/27 10:02:25;;;;;;;1.43;1.33;;;;;;;8.78;69.39;102006.56;6114088;28;20249;-67
2022/12/27 10:05:51;;;;;;;4.63;1.50;;;;;;;8.69;68.64;102009.81;6101347;28;20822;-67
2022/12/27 10:09:29;;;;;;;1.30;1.20;;;;;;;9.50;66.42;102003.63;6082877;28;20258;-68
2022/12/27 10:13:15;;;;;;;3.70;1.67;;;;;;;8.85;67.52;102010.56;6094151;28;20272;-69
2022/12/27 10:16:42;;;;;;;2.30;1.03;;;;;;;9.28;67.76;102012.22;6098345;28;20240;-68
2022/12/27 10:20:15;;;;;;;2.23;2.03;;;;;;;9.03;66.54;102022.88;6107129;28;20605;-69
2022/12/27 10:23:41;;;;;;;6.67;1.77;;;;;;;8.95;66.43;102025.16;6078211;28;20228;-68
2022/12/27 10:27:10;;;;;;;2.33;1.40;;;;;;;10.21;62.36;102036.50;6096011;28;20237;-67
2022/12/27 10:30:33;;;;;;;4.50;1.67;;;;;;;9.71;64.28;102025.56;6087549;28;20235;-69
2022/12/27 10:33:54;;;;;;;2.60;2.10;;;;;;;10.21;63.09;102037.38;6094979;28;20621;-67
2022/12/27 10:37:16;;;;;;;2.63;1.33;;;;;;;11.84;57.61;102038.09;6107176;28;20608;-66
2022/12/27 10:40:42;;;;;;;2.83;1.90;;;;;;;10.99;60.18;102032.72;6101915;28;20236;-67
2022/12/27 10:44:10;;;;;;;2.00;1.63;;;;;;;10.67;62.32;102048.50;6098409;28;20232;-67
2022/12/27 10:47:32;;;;;;;2.90;1.77;;;;;;;12.81;54.86;102039.44;6106241;28;20240;-67
2022/12/27 10:50:56;;;;;;;3.50;1.10;;;;;;;11.33;57.75;102042.78;6112296;28;20237;-67
2022/12/27 10:54:22;;;;;;;2.45;1.80;;;;;;;11.73;56.91;102038.91;6101604;28;20315;-65
2022/12/27 10:57:42;;;;;;;1.25;1.15;;;;;;;11.27;56.13;102068.41;6117301;28;20232;-67
2022/12/27 11:01:03;;;;;;;2.63;1.97;;;;;;;8.28;67.94;102059.88;6111420;28;20497;-66
2022/12/27 11:04:26;;;;;;;3.63;1.80;;;;;;;8.01;73.13;102047.09;6101498;28;20228;-68
2022/12/27 11:07:47;;;;;;;3.53;2.47;;;;;;;9.64;69.07;102055.56;6110315;28;20263;-68
2022/12/27 11:11:13;;;;;;;2.00;1.50;;;;;;;12.53;59.72;102056.13;6111295;28;20278;-68
2022/12/27 11:14:36;;;;;;;4.30;1.97;;;;;;;11.85;56.97;102062.28;6108108;28;20232;-69
2022/12/27 11:17:59;;;;;;;3.47;1.17;;;;;;;13.17;55.63;102063.59;6090788;28;20228;-69
2022/12/27 11:21:22;;;;;;;4.28;1.02;;;;;;;10.73;59.29;102084.97;6089974;28;20359;-69
2022/12/27 11:24:47;;;;;;;4.80;2.00;;;;;;;11.72;58.66;102077.66;6098677;28;20251;-68
2022/12/27 11:28:22;;;;;;;2.00;1.43;;;;;;;9.94;61.31;102081.44;6099709;28;20385;-68
2022/12/27 11:31:47;;;;;;;2.63;1.63;;;;;;;11.20;58.32;102077.91;6092837;28;20227;-67
2022/12/27 11:35:16;;;;;;;2.10;1.60;;;;;;;11.56;56.73;102092.41;6091491;28;20224;-66
2022/12/27 11:38:42;;;;;;;10.00;2.03;;;;;;;9.91;61.49;102082.50;6093222;28;20239;-68
2022/12/27 11:42:06;;;;;;;3.43;1.70;;;;;;;10.17;61.00;102081.66;6110368;28;20626;-67
2022/12/27 11:45:35;;;;;;;4.10;2.00;;;;;;;9.86;61.98;102097.25;6116306;28;20243;-68
2022/12/27 11:48:58;;;;;;;3.13;1.50;;;;;;;11.51;57.26;102079.25;6092755;28;20227;-67
2022/12/27 11:52:40;;;;;;;4.83;1.60;;;;;;;11.97;54.76;102076.72;6112311;28;20240;-67
2022/12/27 11:56:19;;;;;;;4.13;2.20;;;;;;;11.05;59.35;102086.25;6097855;28;20236;-67
2022/12/27 11:59:54;;;;;;;1.70;1.30;;;;;;;10.84;59.88;102094.03;6095327;28;20612;-68
2022/12/27 12:03:38;;;;;;;2.70;1.07;;;;;;;10.67;58.99;102083.56;6096428;28;20243;-68
2022/12/27 12:07:11;;;;;;;5.23;1.43;;;;;;;9.84;63.53;102086.59;6097550;28;20239;-70
2022/12/27 12:10:43;;;;;;;5.97;2.20;;;;;;;10.26;62.67;102088.25;6103649;28;20514;-69
2022/12/27 12:14:23;;;;;;;2.00;1.80;;;;;;;10.43;60.32;102098.72;6094174;28;20715;-68
2022/12/27 12:18:11;;;;;;;5.37;2.03;;;;;;;11.31;59.61;102090.63;6093974;28;20231;-69
2022/12/27 12:21:36;;;;;;;3.13;1.30;;;;;;;10.71;60.51;102087.78;6092616;28;20498;-69
2022/12/27 12:25:19;;;;;;;3.87;1.53;;;;;;;10.51;59.01;102092.81;6105086;28;20266;-67
2022/12/27 12:29:17;;;;;;;2.23;1.00;;;;;;;10.23;60.68;102096.53;6091109;28;20239;-68
2022/12/27 12:32:52;;;;;;;4.53;2.37;;;;;;;8.65;66.37;102099.69;6106054;28;21161;-68
2022/12/27 12:36:43;;;;;;;2.10;1.97;;;;;;;7.85;70.00;102115.22;6100584;28;20247;-68
2022/12/27 12:40:27;;;;;;;3.23;1.80;;;;;;;7.25;72.38;102123.09;6102200;28;20231;-68
2022/12/27 12:44:13;;;;;;;4.83;2.20;;;;;;;6.92;73.36;102121.38;6102376;28;20580;-68
2022/12/27 12:47:57;;;;;;;2.03;1.23;;;;;;;6.99;73.80;102123.63;6103517;28;20228;-67
2022/12/27 12:51:35;;;;;;;4.80;2.20;;;;;;;6.93;73.72;102118.59;6091464;28;20513;-67
2022/12/27 12:55:18;;;;;;;4.67;2.10;;;;;;;7.30;73.18;102121.97;6108397;28;20337;-67
2022/12/27 12:58:48;;;;;;;3.27;2.33;;;;;;;8.41;67.77;102099.34;6104231;28;20224;-67
2022/12/27 13:02:33;;;;;;;1.90;1.80;;;;;;;7.79;70.50;102108.38;6112315;28;20251;-67
2022/12/27 13:06:04;;;;;;;3.57;1.97;;;;;;;7.81;71.27;102103.78;6106050;28;20631;-67
2022/12/27 13:09:36;;;;;;;5.10;2.63;;;;;;;7.50;71.77;102089.53;6097259;28;20817;-66
2022/12/27 13:13:03;;;;;;;3.03;2.27;;;;;;;7.01;73.53;102104.78;6096458;28;20235;-66
2022/12/27 13:16:34;;;;;;;4.63;1.90;;;;;;;6.69;74.36;102098.50;6098692;28;20251;-67
2022/12/27 13:20:06;;;;;;;1.97;1.87;;;;;;;6.74;74.88;102093.75;6100165;28;20237;-67
2022/12/27 13:23:43;;;;;;;4.17;2.93;;;;;;;6.75;75.08;102090.13;6092830;28;20231;-67
2022/12/27 13:27:12;;;;;;;8.17;2.30;;;;;;;6.43;75.77;102085.59;6121119;28;20239;-66
2022/12/27 13:30:40;;;;;;;6.83;2.17;;;;;;;6.55;76.00;102090.28;6108402;28;20369;-67
2022/12/27 13:34:14;;;;;;;2.87;2.03;;;;;;;6.73;75.17;102099.19;6089762;28;20349;-67
2022/12/27 13:37:44;;;;;;;2.53;2.33;;;;;;;6.48;76.09;102110.34;6108507;28;20239;-69
2022/12/27 13:41:29;;;;;;;2.93;2.10;;;;;;;6.39;76.43;102089.38;6100950;28;20232;-68
2022/12/27 13:45:07;;;;;;;10.03;2.50;;;;;;;6.45;76.68;102092.59;6097346;28;20871;-67
2022/12/27 13:48:49;;;;;;;2.87;2.57;;;;;;;6.47;76.47;102084.47;6100958;28;20228;-68
2022/12/27 13:52:24;;;;;;;3.17;2.33;;;;;;;6.54;76.42;102085.91;6106769;28;20643;-68
2022/12/27 13:55:55;;;;;;;3.97;2.40;;;;;;;6.46;77.27;102096.16;6104338;28;20228;-66
2022/12/27 13:59:56;;;;;;;3.10;1.93;;;;;;;6.22;76.77;102086.69;6091702;28;21114;-67
2022/12/27 14:03:58;;;;;;;6.73;1.70;;;;;;;6.24;77.29;102100.88;6105698;28;20557;-68
2022/12/27 14:07:47;;;;;;;3.33;2.07;;;;;;;6.11;77.38;102087.25;6046924;28;20248;-68
2022/12/27 14:11:23;;;;;;;2.70;2.50;;;;;;;6.16;77.77;102090.56;6109858;28;20618;-67
2022/12/27 14:14:47;;;;;;;3.87;2.80;;;;;;;6.12;77.33;102091.66;6106357;28;20243;-68
2022/12/27 14:18:35;;;;;;;3.47;3.17;;;;;;;6.05;78.24;102089.41;6115721;28;20232;-67
2022/12/27 14:22:10;;;;;;;5.40;2.03;;;;;;;5.91;78.82;102098.09;6109066;28;20232;-66
2022/12/27 14:26:03;;;;;;;2.70;2.50;;;;;;;5.82;79.27;102093.16;6115777;28;20256;-68
2022/12/27 14:30:04;;;;;;;5.27;3.17;;;;;;;5.79;79.68;102095.13;6105970;28;20234;-68
2022/12/27 14:33:45;;;;;;;9.00;2.07;;;;;;;5.86;79.35;102078.72;6103302;28;20322;-68
2022/12/27 14:37:48;;;;;;;5.77;2.30;;;;;;;5.82;79.59;102081.63;6125344;28;20745;-68
2022/12/27 14:41:45;;;;;;;3.83;1.60;;;;;;;5.76;80.15;102092.63;6094203;28;20235;-68
2022/12/27 14:45:55;;;;;;;9.47;2.83;;;;;;;5.80;80.90;102079.00;6106056;28;20799;-68
2022/12/27 14:49:41;;;;;;;2.27;1.87;;;;;;;5.69;80.32;102089.38;6114561;28;20227;-68
2022/12/27 14:53:38;;;;;;;7.60;2.80;;;;;;;5.64;80.97;102089.59;6100857;28;20787;-67
2022/12/27 14:57:08;;;;;;;6.80;2.80;;;;;;;5.60;81.52;102100.53;6105567;28;20240;-67
2022/12/27 15:04:37;;;;;;;3.90;2.03;;;;;;;5.55;81.98;102106.09;6081403;29;20382;-68
2022/12/27 15:08:09;;;;;;;1.47;1.37;;;;;;;5.51;82.14;102120.53;6101096;29;20232;-67
2022/12/27 15:11:44;;;;;;;7.40;2.67;;;;;;;5.53;82.39;102109.75;6100195;29;20319;-66
2022/12/27 15:15:35;;;;;;;6.17;2.50;;;;;;;5.45;82.68;102118.16;6090898;29;20260;-67
2022/12/27 15:19:14;;;;;;;5.50;2.40;;;;;;;5.41;83.47;102111.25;6084635;28;20236;-66
2022/12/27 15:22:48;;;;;;;14.13;2.60;;;;;;;5.49;82.85;102101.03;6095415;29;20232;-67
2022/12/27 15:26:17;;;;;;;4.10;2.13;;;;;;;5.39;83.49;102107.78;6082158;29;20240;-67
2022/12/27 15:29:49;;;;;;;3.57;2.00;;;;;;;5.30;83.82;102110.88;6086032;29;20314;-66
2022/12/27 15:33:22;;;;;;;5.20;2.17;;;;;;;5.34;83.75;102107.09;6087081;29;21290;-67
2022/12/27 15:36:45;;;;;;;2.27;1.60;;;;;;;5.26;84.09;102103.94;6087279;29;20274;-68
2022/12/27 15:40:23;;;;;;;5.07;3.00;;;;;;;5.34;84.46;102112.47;6089334;29;21003;-68
2022/12/27 15:44:24;;;;;;;5.67;2.27;;;;;;;5.28;84.08;102106.53;6082638;29;20252;-68
2022/12/27 15:48:08;;;;;;;5.80;3.07;;;;;;;5.34;83.92;102111.63;6080928;29;20236;-68
2022/12/27 15:51:35;;;;;;;4.13;2.57;;;;;;;5.34;84.15;102108.94;6091764;29;20346;-68
2022/12/27 15:55:14;;;;;;;3.57;2.00;;;;;;;5.24;84.89;102100.47;6087049;29;20504;-67
2022/12/27 15:58:37;;;;;;;4.50;2.30;;;;;;;5.19;85.29;102101.63;6082217;29;20256;-68
2022/12/27 16:02:33;;;;;;;3.50;3.17;;;;;;;5.25;84.92;102099.53;6094425;29;20239;-68
2022/12/27 16:05:54;;;;;;;2.80;2.17;;;;;;;5.22;85.41;102093.44;6031906;28;21839;-66
2022/12/27 16:09:35;;;;;;;4.67;2.50;;;;;;;5.28;85.45;102091.38;6085018;29;20235;-67
2022/12/27 16:12:58;;;;;;;5.70;3.40;;;;;;;5.22;85.64;102088.09;6086474;29;20240;-67
2022/12/27 16:16:56;;;;;;;3.70;2.77;;;;;;;5.25;85.74;102079.97;6085832;29;20260;-67
2022/12/27 16:20:19;;;;;;;2.10;1.90;;;;;;;5.18;86.06;102079.38;6089716;29;20227;-66
2022/12/27 16:23:49;;;;;;;16.90;3.17;;;;;;;5.19;86.45;102072.22;6078635;29;20247;-67
2022/12/27 16:27:26;;;;;;;11.10;4.47;;;;;;;5.19;86.54;102081.13;6088714;29;20228;-68
2022/12/27 16:30:49;;;;;;;2.40;2.20;;;;;;;5.12;86.89;102074.31;6081249;28;20494;-68
2022/12/27 16:34:12;;;;;;;7.77;3.77;;;;;;;5.18;87.30;102068.69;6069257;28;20240;-68
2022/12/27 16:37:40;;;;;;;4.90;3.00;;;;;;;5.14;87.45;102069.78;6077274;29;20236;-68
2022/12/27 16:41:13;;;;;;;5.40;2.57;;;;;;;5.12;87.05;102076.13;6085721;29;20244;-68
2022/12/27 16:44:49;;;;;;;4.63;4.20;;;;;;;5.09;87.19;102071.78;6082397;29;20263;-66
2022/12/27 16:48:25;;;;;;;9.30;3.50;;;;;;;5.08;87.64;102069.19;6086709;28;20629;-68
2022/12/27 16:52:00;;;;;;;14.43;3.47;;;;;;;5.09;87.31;102078.97;6091810;29;20566;-68
2022/12/27 16:55:43;;;;;;;3.33;3.03;;;;;;;5.04;88.39;102068.47;6095348;28;20228;-68
2022/12/27 16:59:44;;;;;;;8.40;3.33;;;;;;;4.99;88.43;102077.63;6078387;28;20240;-68
2022/12/27 17:03:41;;;;;;;6.67;3.10;;;;;;;4.95;88.46;102076.03;6075865;29;20256;-68
2022/12/27 17:07:02;;;;;;;4.10;2.90;;;;;;;4.92;88.74;102081.53;6070505;28;20259;-68
2022/12/27 17:11:08;;;;;;;3.23;2.93;;;;;;;4.91;88.81;102093.16;6082687;29;20248;-69
2022/12/27 17:14:35;;;;;;;3.67;2.77;;;;;;;4.91;88.90;102086.00;6079313;29;20241;-68
2022/12/27 17:18:06;;;;;;;11.50;4.57;;;;;;;4.90;88.96;102083.41;6090902;29;20264;-68
2022/12/27 17:21:30;;;;;;;3.53;3.20;;;;;;;4.85;89.37;102087.16;6077222;29;20243;-69
2022/12/27 17:24:56;;;;;;;5.43;2.87;;;;;;;4.88;89.35;102079.94;6073213;29;20495;-69
2022/12/27 17:28:24;;;;;;;3.00;2.43;;;;;;;4.84;89.02;102087.22;6092091;28;20240;-69
2022/12/27 17:31:52;;;;;;;11.40;2.37;;;;;;;4.86;89.56;102083.53;6085502;29;20602;-69
2022/12/27 17:35:19;;;;;;;3.90;3.27;;;;;;;4.86;89.20;102080.00;6082444;29;20235;-68
2022/12/27 17:38:50;;;;;;;9.83;2.60;;;;;;;4.83;89.26;102085.50;6075406;29;20236;-69
2022/12/27 17:46:21;;;;;;;5.43;3.23;;;;;;;4.85;89.20;102067.59;6080085;29;22172;-69
2022/12/27 17:49:43;;;;;;;3.43;3.10;;;;;;;4.94;89.24;102077.00;6085301;29;20255;-68
2022/12/27 18:00:44;;;;;;;4.03;2.50;;;;;;;5.01;88.38;102052.56;6078853;29;20228;-68
2022/12/27 18:04:06;;;;;;;8.63;3.67;;;;;;;5.07;88.79;102057.63;6080554;29;20239;-68
2022/12/27 18:07:31;;;;;;;4.07;2.73;;;;;;;5.04;89.19;102062.25;6084187;29;20252;-70
2022/12/27 18:10:52;;;;;;;5.13;3.50;;;;;;;5.12;88.93;102049.41;6083139;28;20617;-69
2022/12/27 18:14:13;;;;;;;3.03;2.83;;;;;;;5.15;88.85;102049.25;6078525;29;20247;-68